Home > Products > Valid Products > TAF

000
FTUS44 KJAN 221700
TAFGWO
TAF
KGWO 221726Z 2218/2318 23005KT P6SM SKC=



000
FTUS44 KJAN 221700
TAFGLH
TAF
KGLH 221726Z 2218/2318 25007KT P6SM SKC=



000
FTUS44 KJAN 221700
TAFMEI
TAF
KMEI 221726Z 2218/2318 34005KT P6SM SCT050
     FM231000 00000KT 4SM BR SKC
     FM231300 31005KT P6SM SKC=



000
FTUS44 KJAN 221700
TAFJAN
TAF
KJAN 221726Z 2218/2318 27004KT P6SM SCT050=



000
FTUS44 KJAN 221700
TAFHBG
TAF
KHBG 221726Z 2218/2318 35005KT P6SM SCT045
     FM222100 VRB05KT P6SM VCTS SCT050CB
     FM230000 00000KT P6SM FEW250
     FM230900 00000KT 4SM BR SKC
     FM231300 31005KT P6SM SKC=



000
FTUS44 KJAN 221200 CCA
TAFHBG
TAF COR
KHBG 221229Z 2212/2312 VRB04KT P6SM SKC
     FM222100 VRB05KT P6SM VCTS SCT050CB
     FM230000 21003KT P6SM FEW250
     FM230900 00000KT 4SM BR SKC=



000
FTUS44 KJAN 221100 AAA
TAFHBG
TAF AMD
KHBG 221143Z 2212/2312 00000KT 1SM BR SCT250
     FM221300 27004KT P6SM SCT050
     FM222100 12010KT P6SM VCTS BKN040CB
     FM230000 21003KT P6SM FEW250
     FM230900 00000KT 4SM BR SKC=



000
FTUS44 KJAN 221100
TAFJAN
TAF
KJAN 221120Z 2212/2312 21003KT P6SM FEW250
     FM221300 30004KT P6SM SCT050=



000
FTUS44 KJAN 221100
TAFMEI
TAF
KMEI 221120Z 2212/2312 00000KT P6SM SKC
     FM221300 31004KT P6SM SCT050
     FM222100 12010KT P6SM VCTS BKN040CB
     FM230000 21003KT P6SM FEW250
     FM231000 00000KT 4SM BR SKC=



000
FTUS44 KJAN 221100
TAFGWO
TAF
KGWO 221120Z 2212/2312 23003KT P6SM SCT250
     FM221300 24005KT P6SM SCT050=



000
FTUS44 KJAN 221100
TAFGLH
TAF
KGLH 221120Z 2212/2312 19003KT P6SM FEW250
     FM221300 26007KT P6SM SCT050=



000
FTUS44 KJAN 221100
TAFHBG
TAF
KHBG 221120Z 2212/2312 00000KT 2SM BR SCT250
     FM221300 27004KT P6SM SCT050
     FM222100 12010KT P6SM VCTS BKN040CB
     FM230000 21003KT P6SM FEW250
     FM230900 00000KT 4SM BR SKC=



000
FTUS44 KJAN 220500
TAFGWO
TAF
KGWO 220539Z 2206/2306 23003KT P6SM SCT250
     FM221300 24005KT P6SM SCT050=



000
FTUS44 KJAN 220500
TAFHBG
TAF
KHBG 220539Z 2206/2306 18003KT 1/2SM HZ SCT250
     FM220800 00000KT 3SM HZ SCT250
     FM221300 27004KT P6SM SCT050
     FM222100 12010KT P6SM VCTS BKN040CB
     FM230000 21003KT P6SM FEW250=



000
FTUS44 KJAN 220500
TAFMEI
TAF
KMEI 220539Z 2206/2306 00000KT P6SM SKC
     FM221300 31004KT P6SM SCT050
     FM222100 12010KT P6SM VCTS BKN040CB
     FM230000 21003KT P6SM FEW250=



000
FTUS44 KJAN 220500
TAFGLH
TAF
KGLH 220539Z 2206/2306 19003KT P6SM FEW250
     FM221300 26007KT P6SM SCT050=



000
FTUS44 KJAN 220500
TAFJAN
TAF
KJAN 220539Z 2206/2306 21003KT P6SM FEW250
     FM221300 30004KT P6SM SCT050=



000
FTUS44 KJAN 220000 AAA
TAFJAN
TAF AMD
KJAN 220023Z 2200/2224 12010G20KT 1SM +TSRA BR OVC040CB
     FM220100 17003KT P6SM VCTS BKN050CB
     FM220200 00000KT 6SM BR SKC
     FM221300 30004KT P6SM SCT050=



000
FTUS44 KJAN 212300
TAFGWO
TAF
KGWO 212320Z 2200/2224 18003KT P6SM SKC
     FM221100 00000KT 5SM BR SKC
     FM221300 24005KT P6SM SCT050=



000
FTUS44 KJAN 212300
TAFJAN
TAF
KJAN 212320Z 2200/2224 17003KT P6SM VCTS BKN050CB
     FM220200 00000KT 6SM BR SKC
     FM221300 30004KT P6SM SCT050=



000
FTUS44 KJAN 212300
TAFGLH
TAF
KGLH 212320Z 2200/2224 18004KT P6SM VCTS SCT050CB
     FM220200 18004KT P6SM SKC
     FM221100 23004KT 5SM BR SKC
     FM221300 26007KT P6SM SCT050=



000
FTUS44 KJAN 212300
TAFHBG
TAF
KHBG 212320Z 2200/2224 30010G20KT P6SM VCTS BKN060CB
     FM220200 00000KT 6SM BR SKC
     FM221300 30004KT P6SM SCT050=



000
FTUS44 KJAN 212300
TAFMEI
TAF
KMEI 212320Z 2200/2224 VRB03KT P6SM VCTS SCT060CB BKN090
     FM220200 00000KT 6SM BR SKC
     FM221300 31004KT P6SM SCT050=



000
FTUS44 KJAN 212200 AAA
TAFHBG
TAF AMD
KHBG 212255Z 2123/2218 19004KT P6SM VCTS BKN060CB
     FM220000 17005KT P6SM SCT050=



000
FTUS44 KJAN 212200 AAA
TAFJAN
TAF AMD
KJAN 212254Z 2123/2218 22005KT P6SM VCTS BKN050CB
     FM220000 23006KT P6SM SCT040=



000
FTUS44 KJAN 211700 RRA
TAFHBG
TAF
KHBG 211758Z 2118/2218 19004KT P6SM FEW030
     FM212000 17005KT P6SM SCT050=



000
FTUS44 KJAN 211700 RRA
TAFMEI
TAF
KMEI 211758Z 2118/2218 26005KT P6SM SKC
     FM211900 19004KT P6SM SCT050
     FM221000 19004KT 4SM BR SKC=



000
FTUS44 KJAN 211700 RRA
TAFGWO
TAF
KGWO 211758Z 2118/2218 22006KT P6SM SCT020
     FM212000 21005KT P6SM SCT050=



000
FTUS44 KJAN 211700 RRA
TAFJAN
TAF
KJAN 211758Z 2118/2218 22005KT P6SM FEW060
     FM212000 23006KT P6SM SCT040=



000
FTUS44 KJAN 211700 RRA
TAFGLH
TAF
KGLH 211758Z 2118/2218 24007KT P6SM FEW020
     FM212000 22007KT P6SM SCT040=



000
FTUS44 KJAN 211100
TAFGWO
TAF
KGWO 211120Z 2112/2212 22003KT P6SM SKC
     FM211500 22006KT P6SM SCT050=



000
FTUS44 KJAN 211100
TAFGLH
TAF
KGLH 211120Z 2112/2212 22004KT P6SM SKC
     FM211500 24007KT P6SM SCT050=



000
FTUS44 KJAN 211100
TAFHBG
TAF
KHBG 211120Z 2112/2212 22003KT P6SM SCT250
     FM211500 26004KT P6SM SCT050=



000
FTUS44 KJAN 211100
TAFJAN
TAF
KJAN 211120Z 2112/2212 18003KT P6SM FEW060
     FM211400 25005KT P6SM SCT050=



000
FTUS44 KJAN 211100
TAFMEI
TAF
KMEI 211120Z 2112/2212 00000KT P6SM SKC
     FM211400 24005KT P6SM SCT050
     FM221000 22002KT 4SM BR SKC=



000
FTUS44 KJAN 210500
TAFHBG
TAF
KHBG 210520Z 2106/2206 22003KT P6SM SCT250
     FM210800 00000KT 4SM BR SKC
     FM211100 00000KT 1SM BR SCT003
     FM211400 26004KT P6SM SCT050=



000
FTUS44 KJAN 210500
TAFGWO
TAF
KGWO 210520Z 2106/2206 00000KT P6SM SKC
     FM211000 00000KT 4SM BR SKC
     FM211400 22006KT P6SM SCT050=



000
FTUS44 KJAN 210500
TAFMEI
TAF
KMEI 210520Z 2106/2206 00000KT P6SM SKC
     FM210900 00000KT 4SM BR SKC
     FM211400 24005KT P6SM SCT050=



000
FTUS44 KJAN 210500
TAFGLH
TAF
KGLH 210520Z 2106/2206 18003KT P6SM SKC
     FM211000 21004KT 4SM BR SKC
     FM211400 24007KT P6SM SCT050=



000
FTUS44 KJAN 210500
TAFJAN
TAF
KJAN 210520Z 2106/2206 18003KT P6SM FEW060
     FM211100 00000KT 4SM BR SKC
     FM211300 25005KT P6SM SCT050=



000
FTUS44 KJAN 202300
TAFHBG
TAF
KHBG 202320Z 2100/2124 19003KT P6SM SCT060 BKN250
     FM210800 00000KT 4SM BR SKC
     FM211100 00000KT 1SM BR SCT003
     FM211400 26004KT P6SM SCT050=



000
FTUS44 KJAN 202300
TAFJAN
TAF
KJAN 202320Z 2100/2124 18003KT P6SM SKC
     FM211100 00000KT 4SM BR SKC
     FM211300 25005KT P6SM SCT050=



000
FTUS44 KJAN 202300
TAFGWO
TAF
KGWO 202320Z 2100/2124 21003KT P6SM SKC
     FM211000 00000KT 4SM BR SKC
     FM211400 22006KT P6SM SCT050=



000
FTUS44 KJAN 202300
TAFGLH
TAF
KGLH 202320Z 2100/2124 18003KT P6SM SKC
     FM211000 21004KT 4SM BR SKC
     FM211400 24007KT P6SM SCT050=



000
FTUS44 KJAN 202300
TAFMEI
TAF
KMEI 202320Z 2100/2124 20003KT P6SM SKC
     FM210600 00000KT 4SM BR SKC
     FM211400 24005KT P6SM SCT050=



000
FTUS44 KJAN 201800 AAA
TAFGLH
TAF AMD
KGLH 201806Z 2018/2118 25007KT P6SM FEW040
     FM210000 20003KT P6SM SKC=



000
FTUS44 KJAN 201700
TAFGWO
TAF
KGWO 201720Z 2018/2118 25005KT P6SM SCT040
     FM210000 20003KT P6SM SKC=



000
FTUS44 KJAN 201700
TAFGLH
TAF
KGLH 201720Z 2018/2118 26005KT P6SM SCT040
     FM210000 20003KT P6SM SKC=



000
FTUS44 KJAN 201700
TAFHBG
TAF
KHBG 201720Z 2018/2118 26007KT P6SM SCT040
     FM210100 20003KT P6SM SKC
     FM210900 00000KT 5SM BR SKC
     FM211400 27004KT P6SM FEW040=



000
FTUS44 KJAN 201700
TAFMEI
TAF
KMEI 201720Z 2018/2118 24006KT P6SM SCT040
     FM210100 20003KT P6SM SKC
     FM210900 00000KT 5SM BR SKC
     FM211400 26005KT P6SM FEW040=



000
FTUS44 KJAN 201700
TAFJAN
TAF
KJAN 201720Z 2018/2118 25006KT P6SM SCT040
     FM210100 00000KT P6SM SKC
     FM211430 25004KT P6SM FEW040=



000
FTUS44 KJAN 201100
TAFHBG
TAF
KHBG 201120Z 2012/2112 24003KT P6SM SCT250
     FM201500 23006KT P6SM SCT040
     FM210900 00000KT 4SM BR SKC=



000
FTUS44 KJAN 201100
TAFGWO
TAF
KGWO 201120Z 2012/2112 20003KT P6SM FEW250
     FM201500 26007KT P6SM SCT040=



000
FTUS44 KJAN 201100
TAFMEI
TAF
KMEI 201120Z 2012/2112 20003KT P6SM SCT250
     FM201500 26005KT P6SM SCT040
     FM210900 00000KT 4SM BR SKC=



000
FTUS44 KJAN 201100
TAFGLH
TAF
KGLH 201120Z 2012/2112 21003KT P6SM FEW250
     FM201500 25008KT P6SM SCT040=



000
FTUS44 KJAN 201100
TAFJAN
TAF
KJAN 201120Z 2012/2112 17003KT P6SM SCT250
     FM201500 26005KT P6SM SCT040=



000
FTUS44 KJAN 200500
TAFHBG
TAF
KHBG 200520Z 2006/2106 16003KT P6SM SCT250
     FM201000 00000KT 4SM BR FEW012
     FM201300 23005KT P6SM SCT040=



000
FTUS44 KJAN 200500
TAFMEI
TAF
KMEI 200520Z 2006/2106 16003KT P6SM SCT250
     FM201000 00000KT 4SM BR SCT012
     FM201400 23005KT P6SM SCT040=



000
FTUS44 KJAN 200500
TAFGWO
TAF
KGWO 200520Z 2006/2106 20003KT P6SM SCT250
     FM201000 22003KT 4SM BR SKC
     FM201300 24007KT P6SM SCT040=



000
FTUS44 KJAN 200500
TAFJAN
TAF
KJAN 200520Z 2006/2106 17003KT P6SM SCT250
     FM201500 23005KT P6SM SCT040=



000
FTUS44 KJAN 200500
TAFGLH
TAF
KGLH 200520Z 2006/2106 21003KT P6SM SCT250
     FM201000 22003KT 4SM BR SKC
     FM201300 25008KT P6SM SCT040=



000
FTUS44 KJAN 192300
TAFMEI
TAF
KMEI 192320Z 2000/2024 VRB05KT P6SM VCSH FEW050 BKN120
     FM200100 20003KT P6SM FEW120 BKN200
     FM201000 00000KT 4SM BR SCT012
      TEMPO 2012/2014 BKN012
     FM201400 26005KT P6SM SCT040=



000
FTUS44 KJAN 192300
TAFJAN
TAF
KJAN 192320Z 2000/2024 21004KT P6SM FEW050
      TEMPO 2012/2014 BKN012
     FM201500 26005KT P6SM SCT040=



000
FTUS44 KJAN 192300
TAFHBG
TAF
KHBG 192320Z 2000/2024 VRB05KT P6SM FEW050
     FM201000 00000KT 4SM BR FEW012
     FM201100 00000KT 4SM BR BKN010
     FM201300 27005KT P6SM SCT040=



000
FTUS44 KJAN 192300
TAFGWO
TAF
KGWO 192320Z 2000/2024 21003KT P6SM SKC
     FM201100 22003KT 4SM BR SKC
     FM201400 24007KT P6SM SCT040=



000
FTUS44 KJAN 192300
TAFGLH
TAF
KGLH 192320Z 2000/2024 22006KT P6SM FEW050
     FM201500 25008KT P6SM SCT040=



000
FTUS44 KJAN 192200 AAA
TAFHBG
TAF AMD
KHBG 192224Z 1922/2018 VRB05KT P6SM FEW050
     FM200800 00000KT 4SM BR FEW250
     FM201000 00000KT 2SM BR BKN010
     FM201400 28005KT P6SM SCT020=



    US Dept of Commerce
    National Oceanic and Atmospheric Administration
    National Weather Service
    1325 East West Highway
    Silver Spring, MD 20910
    Page Author: NWS Internet Services Team
Disclaimer
Information Quality
Credits
Glossary
Privacy Policy
Freedom of Information Act (FOIA)
About Us
Career Opportunities